createdAt,value
2018-04-22T00:00:55.404Z,15.68
2018-04-22T00:01:55.477Z,15.82
2018-04-22T00:02:55.501Z,15.82
2018-04-22T00:03:55.560Z,15.78
2018-04-22T00:04:55.620Z,15.84
2018-04-22T00:05:55.680Z,15.86
2018-04-22T00:06:55.723Z,15.81
2018-04-22T00:07:55.750Z,15.79
2018-04-22T00:08:55.804Z,15.79
2018-04-22T00:09:55.871Z,15.78
2018-04-22T00:10:55.913Z,15.68
2018-04-22T00:11:55.977Z,15.76
2018-04-22T00:12:55.997Z,15.74
2018-04-22T00:13:56.047Z,15.66
2018-04-22T00:14:56.097Z,15.72
2018-04-22T00:15:56.150Z,15.70
2018-04-22T00:16:56.219Z,15.70
2018-04-22T00:17:56.249Z,15.68
2018-04-22T00:18:56.294Z,15.68
2018-04-22T00:19:56.349Z,15.66
2018-04-22T00:20:56.395Z,15.68
2018-04-22T00:21:56.473Z,15.66
2018-04-22T00:22:56.492Z,15.67
2018-04-22T00:23:56.543Z,15.60
2018-04-22T00:24:56.593Z,15.60
2018-04-22T00:25:56.643Z,15.57
2018-04-22T00:26:56.724Z,15.52
2018-04-22T00:27:56.743Z,15.45
2018-04-22T00:28:56.790Z,15.41
2018-04-22T00:29:56.842Z,15.33
2018-04-22T00:30:56.889Z,15.28
2018-04-22T00:31:56.982Z,15.26
2018-04-22T00:32:56.991Z,15.24
2018-04-22T00:33:57.038Z,15.24
2018-04-22T00:34:57.087Z,15.38
2018-04-22T00:35:57.137Z,15.33
2018-04-22T00:36:57.215Z,15.41
2018-04-22T00:37:57.237Z,15.35
2018-04-22T00:38:57.287Z,15.38
2018-04-22T00:39:57.335Z,15.48
2018-04-22T00:40:57.383Z,15.56
2018-04-22T00:41:57.464Z,15.52
2018-04-22T00:42:57.483Z,15.56
2018-04-22T00:43:57.540Z,15.54
2018-04-22T00:44:57.581Z,15.54
2018-04-22T00:45:57.632Z,15.59
2018-04-22T00:46:57.708Z,15.46
2018-04-22T00:47:57.729Z,15.56
2018-04-22T00:48:57.803Z,15.46
2018-04-22T00:49:57.831Z,15.49
2018-04-22T00:50:57.879Z,15.35
2018-04-22T00:51:57.929Z,15.49
2018-04-22T00:52:57.981Z,15.57
2018-04-22T00:53:58.050Z,15.48
2018-04-22T00:54:58.080Z,15.52
2018-04-22T00:55:58.125Z,15.51
2018-04-22T00:56:58.176Z,15.36
2018-04-22T00:57:58.249Z,15.39
2018-04-22T00:58:58.278Z,15.30
2018-04-22T00:59:58.347Z,15.23
2018-04-22T01:00:58.373Z,15.27
2018-04-22T01:01:58.427Z,15.20
2018-04-22T01:02:58.473Z,15.17
2018-04-22T01:03:58.522Z,15.28
2018-04-22T01:04:58.602Z,15.27
2018-04-22T01:05:58.620Z,15.36
2018-04-22T01:06:58.678Z,15.46
2018-04-22T01:07:58.721Z,15.52
2018-04-22T01:08:58.769Z,15.54
2018-04-22T01:09:58.854Z,15.49
2018-04-22T01:10:58.868Z,15.49
2018-04-22T01:11:58.921Z,15.46
2018-04-22T01:12:58.966Z,15.43
2018-04-22T01:13:59.015Z,15.46
2018-04-22T01:14:59.094Z,15.38
2018-04-22T01:15:59.114Z,15.33
2018-04-22T01:16:59.162Z,15.41
2018-04-22T01:17:59.214Z,15.33
2018-04-22T01:18:59.268Z,15.26
2018-04-22T01:19:59.351Z,15.26
2018-04-22T01:20:59.361Z,15.20
2018-04-22T01:21:59.410Z,15.13
2018-04-22T01:22:59.458Z,15.12
2018-04-22T01:23:59.510Z,15.06
2018-04-22T01:24:59.589Z,15.01
2018-04-22T01:25:59.608Z,14.99
2018-04-22T01:26:59.657Z,14.95
2018-04-22T01:27:59.710Z,14.81
2018-04-22T01:28:59.761Z,14.65
2018-04-22T01:29:59.837Z,14.56
2018-04-22T01:30:59.856Z,14.54
2018-04-22T01:31:59.908Z,14.52
2018-04-22T01:32:59.956Z,14.47
2018-04-22T01:34:00.004Z,14.38
2018-04-22T01:35:00.097Z,14.39
2018-04-22T01:36:00.103Z,14.38
2018-04-22T01:37:00.151Z,14.42
2018-04-22T01:38:00.201Z,14.29
2018-04-22T01:39:00.249Z,14.32
2018-04-22T01:40:00.333Z,14.32
2018-04-22T01:41:00.349Z,14.27
2018-04-22T01:42:00.399Z,14.17
2018-04-22T01:43:00.448Z,14.14
2018-04-22T01:44:00.497Z,14.09
2018-04-22T01:45:00.576Z,13.95
2018-04-22T01:46:00.598Z,14.06
2018-04-22T01:47:00.644Z,14.04
2018-04-22T01:48:00.694Z,13.94
2018-04-22T01:49:00.744Z,13.98
2018-04-22T01:50:00.835Z,14.02
2018-04-22T01:51:00.843Z,13.96
2018-04-22T01:52:00.889Z,14.01
2018-04-22T01:53:00.939Z,13.98
2018-04-22T01:54:00.990Z,13.95
2018-04-22T01:55:01.059Z,13.94
2018-04-22T01:56:01.092Z,13.91
2018-04-22T01:57:01.133Z,13.87
2018-04-22T01:58:01.183Z,13.91
2018-04-22T01:59:01.255Z,13.76
2018-04-22T02:00:01.284Z,13.76
2018-04-22T02:01:01.358Z,13.69
2018-04-22T02:02:01.377Z,13.71
2018-04-22T02:03:01.429Z,13.67
2018-04-22T02:04:01.476Z,13.65
2018-04-22T02:05:01.528Z,13.61
2018-04-22T02:06:01.599Z,13.54
2018-04-22T02:07:01.622Z,13.52
2018-04-22T02:08:01.673Z,13.58
2018-04-22T02:09:01.720Z,13.52
2018-04-22T02:10:01.769Z,13.51
2018-04-22T02:11:01.847Z,13.49
2018-04-22T02:12:01.875Z,13.43
2018-04-22T02:13:01.920Z,13.47
2018-04-22T02:14:01.963Z,13.41
2018-04-22T02:15:02.013Z,13.38
2018-04-22T02:16:02.107Z,13.40
2018-04-22T02:17:02.111Z,13.21
2018-04-22T02:18:02.160Z,13.27
2018-04-22T02:19:02.209Z,13.27
2018-04-22T02:20:02.257Z,13.20
2018-04-22T02:21:02.327Z,13.22
2018-04-22T02:22:02.381Z,13.22
2018-04-22T02:23:02.401Z,13.21
2018-04-22T02:24:02.451Z,13.37
2018-04-22T02:25:02.502Z,13.25
2018-04-22T02:26:02.548Z,13.33
2018-04-22T02:27:02.623Z,13.43
2018-04-22T02:28:02.649Z,13.41
2018-04-22T02:29:02.696Z,13.55
2018-04-22T02:30:02.745Z,13.55
2018-04-22T02:31:02.794Z,13.54
2018-04-22T02:32:02.863Z,13.58
2018-04-22T02:33:02.893Z,13.58
2018-04-22T02:34:02.938Z,13.54
2018-04-22T02:35:02.986Z,13.59
2018-04-22T02:36:03.035Z,13.56
2018-04-22T02:37:03.119Z,13.55
2018-04-22T02:38:03.131Z,13.55
2018-04-22T02:39:03.179Z,13.47
2018-04-22T02:40:03.228Z,13.46
2018-04-22T02:41:03.277Z,13.46
2018-04-22T02:42:03.354Z,13.37
2018-04-22T02:43:03.375Z,13.43
2018-04-22T02:44:03.424Z,13.37
2018-04-22T02:45:03.470Z,13.32
2018-04-22T02:46:03.521Z,13.36
2018-04-22T02:47:03.606Z,13.33
2018-04-22T02:48:03.616Z,13.37
2018-04-22T02:49:03.665Z,13.44
2018-04-22T02:50:03.717Z,13.46
2018-04-22T02:51:03.761Z,13.44
2018-04-22T02:52:03.834Z,13.51
2018-04-22T02:53:03.895Z,13.49
2018-04-22T02:54:03.908Z,13.46
2018-04-22T02:55:03.957Z,13.44
2018-04-22T02:56:04.003Z,13.47
2018-04-22T02:57:04.053Z,13.43
2018-04-22T02:58:04.131Z,13.46
2018-04-22T02:59:04.153Z,13.44
2018-04-22T03:00:04.203Z,13.36
2018-04-22T03:01:04.247Z,13.32
2018-04-22T03:02:04.296Z,13.20
2018-04-22T03:03:04.367Z,13.24
2018-04-22T03:04:04.422Z,13.17
2018-04-22T03:05:04.443Z,13.18
2018-04-22T03:06:04.492Z,13.17
2018-04-22T03:07:04.543Z,13.06
2018-04-22T03:08:04.589Z,13.04
2018-04-22T03:09:04.662Z,13.00
2018-04-22T03:10:04.687Z,13.00
2018-04-22T03:11:04.732Z,13.00
2018-04-22T03:12:04.784Z,13.03
2018-04-22T03:13:04.829Z,13.06
2018-04-22T03:14:04.909Z,13.02
2018-04-22T03:15:04.925Z,12.97
2018-04-22T03:16:04.975Z,12.99
2018-04-22T03:17:05.025Z,13.02
2018-04-22T03:18:05.073Z,13.11
2018-04-22T03:19:05.144Z,13.12
2018-04-22T03:20:05.192Z,13.07
2018-04-22T03:21:05.226Z,12.99
2018-04-22T03:22:05.267Z,12.99
2018-04-22T03:23:05.313Z,13.02
2018-04-22T03:24:05.363Z,13.12
2018-04-22T03:25:05.439Z,13.24
2018-04-22T03:26:05.464Z,13.40
2018-04-22T03:27:05.509Z,13.47
2018-04-22T03:28:05.598Z,13.47
2018-04-22T03:29:05.605Z,13.54
2018-04-22T03:30:05.688Z,13.41
2018-04-22T03:31:05.705Z,13.44
2018-04-22T03:32:05.755Z,13.36
2018-04-22T03:33:05.799Z,13.20
2018-04-22T03:34:05.847Z,13.25
2018-04-22T03:35:05.940Z,13.20
2018-04-22T03:36:05.951Z,13.17
2018-04-22T03:37:05.995Z,13.22
2018-04-22T03:38:06.041Z,13.30
2018-04-22T03:39:06.089Z,13.38
2018-04-22T03:40:06.168Z,13.58
2018-04-22T03:41:06.211Z,13.62
2018-04-22T03:42:06.237Z,13.55
2018-04-22T03:43:06.284Z,13.58
2018-04-22T03:44:06.333Z,13.59
2018-04-22T03:45:06.382Z,13.54
2018-04-22T03:46:06.463Z,13.52
2018-04-22T03:47:06.479Z,13.58
2018-04-22T03:48:06.527Z,13.59
2018-04-22T03:49:06.575Z,13.51
2018-04-22T03:50:06.626Z,13.52
2018-04-22T03:51:06.713Z,13.61
2018-04-22T03:52:06.722Z,13.59
2018-04-22T03:53:06.770Z,13.59
2018-04-22T03:54:06.818Z,13.67
2018-04-22T03:55:06.866Z,13.69
2018-04-22T03:56:06.943Z,13.73
2018-04-22T03:57:06.964Z,13.80
2018-04-22T03:58:07.016Z,13.70
2018-04-22T03:59:07.064Z,13.71
2018-04-22T04:00:07.112Z,13.74
2018-04-22T04:01:07.189Z,13.59
2018-04-22T04:02:07.213Z,13.47
2018-04-22T04:03:07.254Z,13.43
2018-04-22T04:04:07.305Z,13.25
2018-04-22T04:05:07.352Z,13.12
2018-04-22T04:06:07.438Z,13.03
2018-04-22T04:07:07.447Z,12.92
2018-04-22T04:08:07.500Z,12.84
2018-04-22T04:09:07.548Z,12.92
2018-04-22T04:10:07.594Z,12.78
2018-04-22T04:11:07.674Z,12.78
2018-04-22T04:12:07.691Z,12.60
2018-04-22T04:13:07.739Z,12.62
2018-04-22T04:14:07.790Z,12.64
2018-04-22T04:15:07.837Z,12.48
2018-04-22T04:16:07.918Z,12.48
2018-04-22T04:17:07.933Z,12.37
2018-04-22T04:18:07.981Z,12.39
2018-04-22T04:19:08.106Z,12.39
2018-04-22T04:20:08.077Z,12.39
2018-04-22T04:21:08.155Z,12.27
2018-04-22T04:22:08.176Z,12.39
2018-04-22T04:23:08.245Z,12.24
2018-04-22T04:24:08.270Z,12.24
2018-04-22T04:25:08.327Z,12.33
2018-04-22T04:26:08.366Z,12.31
2018-04-22T04:27:08.423Z,12.24
2018-04-22T04:28:08.493Z,12.19
2018-04-22T04:29:08.512Z,12.19
2018-04-22T04:30:08.564Z,12.20
2018-04-22T04:31:08.610Z,12.16
2018-04-22T04:32:08.658Z,12.19
2018-04-22T04:33:08.728Z,12.13
2018-04-22T04:34:08.756Z,12.08
2018-04-22T04:35:08.832Z,12.13
2018-04-22T04:36:08.850Z,12.13
2018-04-22T04:37:08.914Z,12.08
2018-04-22T04:38:08.946Z,12.08
2018-04-22T04:39:08.994Z,12.04
2018-04-22T04:40:09.069Z,11.97
2018-04-22T04:41:09.090Z,11.90
2018-04-22T04:42:09.142Z,11.94
2018-04-22T04:43:09.188Z,11.87
2018-04-22T04:44:09.234Z,11.89
2018-04-22T04:45:09.307Z,11.86
2018-04-22T04:46:09.339Z,11.87
2018-04-22T04:47:09.377Z,11.87
2018-04-22T04:48:09.428Z,11.90
2018-04-22T04:49:09.474Z,11.89
2018-04-22T04:50:09.547Z,11.89
2018-04-22T04:51:09.569Z,11.86
2018-04-22T04:52:09.618Z,11.83
2018-04-22T04:53:09.667Z,11.90
2018-04-22T04:54:09.715Z,11.87
2018-04-22T04:55:09.786Z,11.87
2018-04-22T04:56:09.836Z,11.86
2018-04-22T04:57:09.868Z,11.97
2018-04-22T04:58:09.907Z,12.01
2018-04-22T04:59:09.963Z,12.09
2018-04-22T05:00:10.006Z,12.20
2018-04-22T05:01:10.077Z,12.21
2018-04-22T05:02:10.099Z,12.27
2018-04-22T05:03:10.146Z,12.30
2018-04-22T05:04:10.195Z,12.27
2018-04-22T05:05:10.242Z,12.39
2018-04-22T05:06:10.317Z,12.42
2018-04-22T05:07:10.341Z,12.38
2018-04-22T05:08:10.387Z,12.37
2018-04-22T05:09:10.437Z,12.34
2018-04-22T05:10:10.485Z,12.41
2018-04-22T05:11:10.560Z,12.31
2018-04-22T05:12:10.581Z,12.39
2018-04-22T05:13:10.627Z,12.21
2018-04-22T05:14:10.676Z,12.23
2018-04-22T05:15:10.726Z,12.38
2018-04-22T05:16:10.807Z,12.24
2018-04-22T05:17:10.820Z,12.39
2018-04-22T05:18:10.869Z,12.33
2018-04-22T05:19:10.919Z,12.30
2018-04-22T05:20:10.965Z,12.21
2018-04-22T05:21:11.048Z,12.06
2018-04-22T05:22:11.063Z,12.08
2018-04-22T05:23:11.108Z,12.13
2018-04-22T05:24:11.158Z,12.16
2018-04-22T05:25:11.205Z,12.21
2018-04-22T05:26:11.281Z,12.21
2018-04-22T05:27:11.325Z,12.15
2018-04-22T05:28:11.353Z,12.29
2018-04-22T05:29:11.403Z,12.42
2018-04-22T05:30:11.446Z,12.41
2018-04-22T05:31:11.499Z,12.39
2018-04-22T05:32:11.565Z,12.49
2018-04-22T05:33:11.620Z,12.52
2018-04-22T05:34:11.640Z,12.56
2018-04-22T05:35:11.690Z,12.51
2018-04-22T05:36:11.734Z,12.54
2018-04-22T05:37:11.826Z,12.66
2018-04-22T05:38:11.832Z,12.67
2018-04-22T05:39:11.882Z,12.69
2018-04-22T05:40:11.926Z,12.82
2018-04-22T05:41:11.976Z,12.85
2018-04-22T05:42:12.046Z,12.99
2018-04-22T05:43:12.096Z,12.97
2018-04-22T05:44:12.120Z,13.12
2018-04-22T05:45:12.168Z,13.20
2018-04-22T05:46:12.217Z,13.36
2018-04-22T05:47:12.296Z,13.41
2018-04-22T05:48:12.336Z,13.58
2018-04-22T05:49:12.365Z,13.69
2018-04-22T05:50:12.410Z,13.79
2018-04-22T05:51:12.457Z,13.89
2018-04-22T05:52:13.288Z,13.96
2018-04-22T05:53:12.588Z,14.16
2018-04-22T05:54:12.609Z,14.21
2018-04-22T05:55:12.652Z,14.28
2018-04-22T05:56:12.702Z,14.27
2018-04-22T05:57:12.750Z,14.37
2018-04-22T05:58:12.826Z,14.43
2018-04-22T05:59:12.846Z,14.49
2018-04-22T06:00:12.894Z,14.61
2018-04-22T06:01:12.943Z,14.61
2018-04-22T06:02:13.035Z,14.56
2018-04-22T06:03:13.081Z,14.62
2018-04-22T06:04:13.093Z,14.67
2018-04-22T06:05:13.140Z,14.61
2018-04-22T06:06:13.190Z,14.57
2018-04-22T06:07:13.234Z,14.72
2018-04-22T06:08:13.308Z,14.68
2018-04-22T06:09:13.336Z,14.71
2018-04-22T06:10:13.406Z,14.68
2018-04-22T06:11:13.437Z,14.68
2018-04-22T06:12:13.480Z,14.68
2018-04-22T06:13:13.559Z,14.65
2018-04-22T06:14:13.582Z,14.67
2018-04-22T06:15:13.626Z,14.69
2018-04-22T06:16:13.678Z,14.72
2018-04-22T06:17:13.728Z,14.91
2018-04-22T06:18:13.815Z,14.91
2018-04-22T06:19:13.820Z,14.90
2018-04-22T06:20:13.873Z,14.84
2018-04-22T06:21:13.920Z,14.88
2018-04-22T06:22:13.969Z,14.91
2018-04-22T06:23:14.056Z,14.88
2018-04-22T06:24:14.066Z,14.98
2018-04-22T06:25:14.118Z,15.02
2018-04-22T06:26:14.174Z,15.05
2018-04-22T06:27:14.213Z,14.94
2018-04-22T06:28:14.326Z,15.01
2018-04-22T06:29:14.314Z,15.03
2018-04-22T06:30:14.368Z,15.03
2018-04-22T06:31:14.435Z,15.11
2018-04-22T06:32:14.460Z,15.21
2018-04-22T06:33:14.512Z,15.23
2018-04-22T06:34:14.583Z,15.28
2018-04-22T06:35:14.610Z,15.36
2018-04-22T06:36:14.681Z,15.43
2018-04-22T06:37:14.707Z,15.51
2018-04-22T06:38:14.757Z,15.56
2018-04-22T06:39:14.807Z,15.56
2018-04-22T06:40:14.890Z,15.60
2018-04-22T06:41:14.931Z,15.66
2018-04-22T06:42:14.958Z,15.93
2018-04-22T06:43:15.001Z,16.12
2018-04-22T06:44:15.054Z,16.83
2018-04-22T06:45:15.100Z,17.66
2018-04-22T06:46:15.188Z,18.47
2018-04-22T06:47:15.200Z,19.10
2018-04-22T06:48:15.256Z,19.50
2018-04-22T06:49:15.303Z,20.06
2018-04-22T06:50:15.352Z,20.66
2018-04-22T06:51:15.440Z,20.81
2018-04-22T06:52:15.449Z,20.89
2018-04-22T06:53:15.505Z,21.44
2018-04-22T06:54:15.555Z,21.75
2018-04-22T06:55:15.612Z,22.25
2018-04-22T06:56:16.299Z,22.65
2018-04-22T06:57:15.704Z,22.83
2018-04-22T06:58:15.753Z,22.65
2018-04-22T06:59:15.808Z,22.52
2018-04-22T07:00:15.865Z,22.06
2018-04-22T07:01:15.938Z,21.83
2018-04-22T07:02:15.960Z,21.99
2018-04-22T07:03:16.013Z,21.60
2018-04-22T07:04:16.062Z,21.45
2018-04-22T07:05:16.117Z,21.76
2018-04-22T07:06:16.198Z,21.30
2018-04-22T07:07:16.218Z,21.05
2018-04-22T07:08:16.267Z,21.34
2018-04-22T07:09:16.317Z,21.06
2018-04-22T07:10:16.369Z,20.87
2018-04-22T07:11:16.451Z,21.24
2018-04-22T07:12:16.498Z,21.67
2018-04-22T07:13:16.526Z,21.99
2018-04-22T07:14:16.577Z,22.47
2018-04-22T07:15:16.630Z,23.02
2018-04-22T07:16:16.682Z,23.34
2018-04-22T07:17:16.757Z,23.76
2018-04-22T07:18:16.812Z,23.64
2018-04-22T07:19:16.835Z,23.71
2018-04-22T07:20:16.896Z,23.95
2018-04-22T07:21:16.938Z,24.29
2018-04-22T07:22:16.993Z,24.32
2018-04-22T07:23:17.075Z,24.13
2018-04-22T07:24:17.156Z,24.38
2018-04-22T07:25:17.149Z,24.26
2018-04-22T07:26:17.200Z,23.65
2018-04-22T07:27:17.254Z,23.71
2018-04-22T07:28:17.335Z,23.79
2018-04-22T07:29:17.384Z,23.92
2018-04-22T07:30:17.414Z,24.20
2018-04-22T07:31:17.463Z,24.27
2018-04-22T07:32:17.524Z,24.02
2018-04-22T07:33:17.601Z,24.08
2018-04-22T07:34:17.622Z,23.80
2018-04-22T07:35:17.675Z,24.01
2018-04-22T07:36:17.728Z,24.10
2018-04-22T07:37:17.783Z,23.80
2018-04-22T07:38:17.880Z,24.08
2018-04-22T07:39:17.887Z,24.57
2018-04-22T07:40:17.942Z,25.13
2018-04-22T07:41:17.999Z,25.57
2018-04-22T07:42:18.105Z,25.84
2018-04-22T07:43:18.130Z,25.87
2018-04-22T07:44:18.170Z,25.56
2018-04-22T07:45:18.211Z,25.30
2018-04-22T07:46:18.265Z,25.17
2018-04-22T07:47:18.323Z,25.19
2018-04-22T07:48:18.399Z,24.73
2018-04-22T07:49:18.424Z,24.49
2018-04-22T07:50:18.477Z,24.45
2018-04-22T07:51:18.529Z,24.38
2018-04-22T07:52:18.584Z,24.49
2018-04-22T07:53:18.666Z,24.60
2018-04-22T07:54:18.741Z,24.12
2018-04-22T07:55:18.748Z,24.20
2018-04-22T07:56:18.797Z,24.67
2018-04-22T07:57:18.855Z,25.39
2018-04-22T07:58:18.908Z,25.64
2018-04-22T07:59:19.033Z,25.56
2018-04-22T08:00:19.015Z,25.07
2018-04-22T08:01:19.068Z,25.16
2018-04-22T08:02:19.123Z,24.87
2018-04-22T08:03:19.173Z,25.38
2018-04-22T08:04:19.273Z,25.79
2018-04-22T08:05:19.286Z,25.98
2018-04-22T08:06:19.346Z,26.27
2018-04-22T08:07:19.392Z,26.47
2018-04-22T08:08:19.455Z,26.29
2018-04-22T08:09:19.556Z,26.29
2018-04-22T08:10:19.558Z,26.21
2018-04-22T08:11:19.611Z,25.32
2018-04-22T08:12:19.673Z,25.06
2018-04-22T08:13:19.722Z,24.49
2018-04-22T08:14:19.816Z,24.26
2018-04-22T08:15:19.839Z,24.60
2018-04-22T08:16:19.895Z,24.64
2018-04-22T08:17:19.942Z,25.20
2018-04-22T08:18:19.993Z,25.22
2018-04-22T08:19:20.095Z,25.09
2018-04-22T08:20:20.113Z,25.37
2018-04-22T08:21:20.158Z,25.74
2018-04-22T08:22:20.213Z,26.29
2018-04-22T08:23:20.269Z,26.47
2018-04-22T08:24:20.348Z,26.89
2018-04-22T08:25:20.380Z,27.16
2018-04-22T08:26:20.456Z,27.24
2018-04-22T08:27:20.488Z,27.35
2018-04-22T08:28:20.581Z,27.41
2018-04-22T08:29:20.601Z,27.29
2018-04-22T08:30:20.678Z,27.77
2018-04-22T08:31:20.709Z,27.86
2018-04-22T08:32:20.764Z,27.89
2018-04-22T08:33:20.832Z,28.28
2018-04-22T08:34:20.884Z,28.28
2018-04-22T08:35:20.961Z,28.32
2018-04-22T08:36:20.988Z,28.33
2018-04-22T08:37:21.044Z,27.89
2018-04-22T08:38:21.099Z,26.68
2018-04-22T08:39:21.155Z,25.68
2018-04-22T08:40:21.233Z,25.15
2018-04-22T08:41:21.269Z,24.69
2018-04-22T08:42:21.361Z,24.47
2018-04-22T08:43:21.379Z,24.71
2018-04-22T08:44:21.436Z,25.13
2018-04-22T08:45:21.493Z,25.64
2018-04-22T08:46:21.549Z,26.11
2018-04-22T08:47:21.626Z,25.98
2018-04-22T08:48:21.659Z,25.98
2018-04-22T08:49:21.715Z,26.43
2018-04-22T08:50:21.774Z,25.89
2018-04-22T08:51:21.851Z,25.06
2018-04-22T08:52:21.881Z,24.24
2018-04-22T08:53:21.948Z,23.80
2018-04-22T08:54:21.998Z,23.76
2018-04-22T08:55:22.059Z,23.57
2018-04-22T08:56:22.129Z,23.76
2018-04-22T08:57:22.162Z,23.75
2018-04-22T08:58:22.243Z,24.08
2018-04-22T08:59:22.273Z,24.42
2018-04-22T09:00:23.049Z,24.95
2018-04-22T09:01:22.391Z,25.28
2018-04-22T09:02:22.438Z,25.32
2018-04-22T09:03:22.541Z,25.17
2018-04-22T09:04:22.552Z,25.10
2018-04-22T09:05:22.608Z,24.85
2018-04-22T09:06:22.659Z,24.85
2018-04-22T09:07:22.716Z,25.12
2018-04-22T09:08:22.803Z,25.02
2018-04-22T09:09:22.827Z,24.71
2018-04-22T09:10:22.891Z,24.95
2018-04-22T09:11:22.937Z,25.27
2018-04-22T09:12:22.995Z,25.38
2018-04-22T09:13:23.074Z,25.54
2018-04-22T09:14:23.129Z,25.39
2018-04-22T09:15:23.160Z,25.20
2018-04-22T09:16:23.243Z,25.06
2018-04-22T09:17:23.272Z,25.57
2018-04-22T09:18:23.327Z,25.68
2018-04-22T09:19:23.408Z,25.28
2018-04-22T09:20:23.445Z,24.92
2018-04-22T09:21:23.495Z,25.06
2018-04-22T09:22:23.555Z,25.35
2018-04-22T09:23:23.605Z,25.43
2018-04-22T09:24:23.697Z,25.75
2018-04-22T09:25:23.719Z,26.18
2018-04-22T09:26:23.774Z,26.44
2018-04-22T09:27:23.828Z,26.47
2018-04-22T09:28:23.887Z,26.91
2018-04-22T09:29:23.982Z,26.79
2018-04-22T09:30:23.998Z,26.68
2018-04-22T09:31:24.052Z,27.02
2018-04-22T09:32:24.110Z,26.79
2018-04-22T09:33:24.167Z,26.59
2018-04-22T09:34:24.250Z,26.17
2018-04-22T09:35:24.279Z,26.29
2018-04-22T09:36:24.367Z,26.87
2018-04-22T09:37:24.395Z,26.83
2018-04-22T09:38:24.453Z,27.05
2018-04-22T09:39:24.509Z,26.86
2018-04-22T09:40:24.561Z,27.01
2018-04-22T09:41:24.639Z,26.89
2018-04-22T09:42:25.373Z,26.67
2018-04-22T09:43:24.734Z,26.98
2018-04-22T09:44:24.789Z,27.05
2018-04-22T09:45:24.845Z,26.86
2018-04-22T09:46:24.926Z,26.89
2018-04-22T09:47:24.960Z,27.20
2018-04-22T09:48:25.015Z,27.29
2018-04-22T09:49:25.075Z,27.54
2018-04-22T09:50:25.132Z,27.88
2018-04-22T09:51:25.213Z,28.28
2018-04-22T09:52:25.246Z,28.56
2018-04-22T09:53:25.350Z,28.85
2018-04-22T09:54:25.373Z,29.11
2018-04-22T09:55:25.420Z,29.11
2018-04-22T09:56:25.505Z,28.93
2018-04-22T09:57:25.532Z,28.33
2018-04-22T09:58:25.589Z,27.61
2018-04-22T09:59:25.753Z,27.38
2018-04-22T10:00:25.707Z,27.77
2018-04-22T10:01:25.802Z,28.04
2018-04-22T10:02:25.823Z,28.28
2018-04-22T10:03:25.880Z,28.73
2018-04-22T10:04:25.940Z,29.03
2018-04-22T10:05:25.995Z,28.91
2018-04-22T10:06:26.105Z,28.72
2018-04-22T10:07:26.112Z,28.85
2018-04-22T10:08:26.171Z,28.81
2018-04-22T10:09:26.231Z,28.88
2018-04-22T10:10:26.286Z,28.14
2018-04-22T10:11:26.391Z,27.84
2018-04-22T10:12:26.410Z,27.47
2018-04-22T10:13:26.464Z,26.91
2018-04-22T10:14:26.524Z,26.18
2018-04-22T10:15:26.587Z,25.99
2018-04-22T10:16:26.692Z,25.90
2018-04-22T10:17:26.699Z,25.83
2018-04-22T10:18:26.753Z,26.28
2018-04-22T10:19:26.812Z,26.67
2018-04-22T10:20:26.873Z,26.91
2018-04-22T10:21:26.962Z,26.81
2018-04-22T10:22:26.984Z,26.94
2018-04-22T10:23:27.041Z,26.52
2018-04-22T10:24:27.102Z,25.99
2018-04-22T10:25:27.158Z,25.71
2018-04-22T10:26:27.256Z,25.83
2018-04-22T10:27:27.273Z,25.52
2018-04-22T10:28:27.335Z,25.52
2018-04-22T10:29:27.391Z,25.72
2018-04-22T10:30:27.447Z,25.62
2018-04-22T10:31:27.527Z,25.74
2018-04-22T10:32:27.561Z,25.99
2018-04-22T10:33:27.629Z,25.84
2018-04-22T10:34:27.677Z,25.59
2018-04-22T10:35:27.757Z,25.69
2018-04-22T10:36:27.791Z,25.57
2018-04-22T10:37:27.853Z,25.98
2018-04-22T10:38:27.908Z,25.43
2018-04-22T10:39:27.968Z,25.32
2018-04-22T10:40:28.050Z,25.39
2018-04-22T10:41:28.080Z,25.27
2018-04-22T10:42:28.142Z,25.42
2018-04-22T10:43:28.216Z,25.61
2018-04-22T10:44:28.251Z,25.62
2018-04-22T10:45:28.331Z,25.24
2018-04-22T10:46:28.365Z,25.28
2018-04-22T10:47:28.423Z,25.57
2018-04-22T10:48:28.506Z,25.72
2018-04-22T10:49:28.535Z,25.65
2018-04-22T10:50:28.616Z,25.72
2018-04-22T10:51:28.650Z,25.98
2018-04-22T10:52:28.708Z,26.42
2018-04-22T10:53:28.788Z,26.81
2018-04-22T10:54:28.822Z,26.76
2018-04-22T10:55:28.880Z,26.86
2018-04-22T10:56:28.972Z,26.44
2018-04-22T10:57:28.993Z,26.24
2018-04-22T10:58:29.048Z,26.36
2018-04-22T10:59:29.112Z,26.62
2018-04-22T11:00:29.183Z,26.77
2018-04-22T11:01:29.244Z,26.28
2018-04-22T11:02:29.279Z,26.15
2018-04-22T11:03:29.339Z,26.62
2018-04-22T11:04:29.431Z,27.26
2018-04-22T11:05:29.451Z,27.77
2018-04-22T11:06:29.510Z,27.89
2018-04-22T11:07:29.563Z,27.70
2018-04-22T11:08:29.627Z,26.98
2018-04-22T11:09:29.711Z,26.80
2018-04-22T11:10:29.742Z,26.99
2018-04-22T11:11:29.804Z,26.69
2018-04-22T11:12:29.858Z,26.96
2018-04-22T11:13:29.916Z,26.80
2018-04-22T11:14:30.007Z,26.05
2018-04-22T11:15:30.056Z,25.98
2018-04-22T11:16:30.088Z,25.84
2018-04-22T11:17:30.150Z,25.56
2018-04-22T11:18:30.206Z,25.64
2018-04-22T11:19:30.298Z,25.93
2018-04-22T11:20:30.327Z,25.82
2018-04-22T11:21:30.385Z,25.69
2018-04-22T11:22:30.447Z,25.71
2018-04-22T11:23:30.503Z,25.77
2018-04-22T11:24:30.597Z,25.37
2018-04-22T11:25:30.613Z,25.59
2018-04-22T11:26:30.671Z,25.86
2018-04-22T11:27:30.732Z,25.86
2018-04-22T11:28:30.787Z,25.86
2018-04-22T11:29:30.871Z,25.91
2018-04-22T11:30:30.904Z,25.87
2018-04-22T11:31:30.983Z,26.35
2018-04-22T11:32:31.920Z,26.22
2018-04-22T11:33:31.086Z,26.06
2018-04-22T11:34:31.138Z,26.18
2018-04-22T11:35:31.194Z,26.11
2018-04-22T11:36:31.275Z,25.98
2018-04-22T11:37:31.310Z,25.97
2018-04-22T11:38:31.367Z,26.64
2018-04-22T11:39:31.424Z,26.91
2018-04-22T11:40:31.483Z,26.98
2018-04-22T11:41:31.565Z,27.06
2018-04-22T11:42:31.632Z,27.10
2018-04-22T11:43:31.657Z,26.86
2018-04-22T11:44:31.717Z,26.84
2018-04-22T11:45:31.774Z,26.35
2018-04-22T11:46:31.863Z,26.28
2018-04-22T11:47:31.890Z,26.06
2018-04-22T11:48:31.948Z,26.36
2018-04-22T11:49:32.009Z,26.44
2018-04-22T11:50:32.069Z,26.61
2018-04-22T11:51:33.133Z,26.62
2018-04-22T11:52:32.184Z,26.32
2018-04-22T11:53:32.293Z,26.31
2018-04-22T11:54:33.632Z,26.52
2018-04-22T11:55:32.360Z,26.31
2018-04-22T11:56:32.423Z,26.40
2018-04-22T11:57:32.503Z,26.76
2018-04-22T11:58:32.538Z,26.91
2018-04-22T11:59:32.600Z,27.01
2018-04-22T12:00:32.661Z,27.24
2018-04-22T12:01:32.714Z,27.26
2018-04-22T12:02:32.812Z,26.80
2018-04-22T12:03:32.831Z,26.35
2018-04-22T12:04:32.892Z,26.77
2018-04-22T12:05:32.952Z,27.17
2018-04-22T12:06:33.045Z,27.62
2018-04-22T12:07:33.092Z,27.69
2018-04-22T12:08:33.128Z,27.33
2018-04-22T12:09:33.187Z,27.36
2018-04-22T12:10:33.246Z,27.57
2018-04-22T12:11:33.306Z,27.94
2018-04-22T12:12:33.410Z,27.70
2018-04-22T12:13:33.425Z,27.77
2018-04-22T12:14:33.487Z,27.77
2018-04-22T12:15:33.545Z,28.16
2018-04-22T12:16:33.608Z,28.51
2018-04-22T12:17:33.698Z,28.84
2018-04-22T12:18:33.727Z,29.16
2018-04-22T12:19:33.793Z,29.44
2018-04-22T12:20:33.879Z,29.00
2018-04-22T12:21:33.906Z,28.46
2018-04-22T12:22:34.482Z,28.11
2018-04-22T12:23:35.013Z,28.29
2018-04-22T12:24:34.089Z,28.17
2018-04-22T12:25:34.151Z,28.46
2018-04-22T12:26:34.218Z,28.14
2018-04-22T12:27:34.273Z,28.14
2018-04-22T12:28:34.359Z,28.58
2018-04-22T12:29:34.396Z,28.73
2018-04-22T12:30:34.483Z,28.85
2018-04-22T12:31:34.517Z,28.70
2018-04-22T12:32:34.583Z,28.81
2018-04-22T12:33:34.661Z,29.01
2018-04-22T12:34:34.700Z,29.20
2018-04-22T12:35:34.790Z,29.40
2018-04-22T12:36:34.825Z,28.88
2018-04-22T12:37:34.890Z,28.36
2018-04-22T12:38:34.949Z,28.69
2018-04-22T12:39:35.011Z,28.81
2018-04-22T12:40:35.115Z,29.06
2018-04-22T12:41:35.134Z,29.20
2018-04-22T12:42:35.194Z,29.25
2018-04-22T12:43:35.259Z,29.50
2018-04-22T12:44:35.321Z,29.86
2018-04-22T12:45:35.417Z,29.84
2018-04-22T12:46:35.445Z,29.47
2018-04-22T12:47:35.504Z,28.81
2018-04-22T12:48:35.568Z,29.01
2018-04-22T12:49:35.654Z,29.15
2018-04-22T12:50:35.697Z,29.01
2018-04-22T12:51:35.758Z,29.11
2018-04-22T12:52:35.819Z,29.04
2018-04-22T12:53:35.882Z,29.06